createdAt,value
2017-06-25T03:30:17.828Z,5.63
2017-06-25T03:32:45.490Z,6.03
2017-06-25T03:35:13.114Z,5.97
2017-06-25T03:37:41.918Z,5.10
2017-06-25T03:40:09.559Z,5.70
2017-06-25T03:42:37.958Z,5.83
2017-06-25T03:45:06.726Z,5.60
2017-06-25T03:47:34.351Z,5.57
2017-06-25T03:50:01.989Z,6.13
2017-06-25T03:52:29.642Z,5.20
2017-06-25T03:54:57.271Z,6.40
2017-06-25T03:57:24.938Z,6.20
2017-06-25T03:59:53.330Z,6.13
2017-06-25T04:02:21.750Z,6.57
2017-06-25T04:04:49.385Z,5.60
2017-06-25T04:07:17.056Z,6.63
2017-06-25T04:09:44.661Z,6.20
2017-06-25T04:12:12.650Z,5.80
2017-06-25T04:14:41.057Z,6.30
2017-06-25T04:17:08.792Z,6.43
2017-06-25T04:19:37.221Z,6.60
2017-06-25T04:22:04.850Z,7.40
2017-06-25T04:24:32.510Z,6.47
2017-06-25T04:27:00.174Z,5.50
2017-06-25T04:29:28.595Z,6.03
2017-06-25T04:31:56.213Z,7.80
2017-06-25T04:34:23.880Z,5.60
2017-06-25T04:36:51.513Z,6.67
2017-06-25T04:39:19.603Z,5.80
2017-06-25T04:41:48.016Z,6.53
2017-06-25T04:44:15.735Z,6.97
2017-06-25T04:46:44.198Z,6.40
2017-06-25T04:49:11.843Z,6.53
2017-06-25T04:51:39.490Z,6.27
2017-06-25T04:54:07.134Z,7.33
2017-06-25T04:56:35.206Z,6.37
2017-06-25T04:59:02.828Z,6.70
2017-06-25T05:01:30.481Z,7.20
2017-06-25T05:03:58.133Z,7.10
2017-06-25T05:06:25.798Z,7.70
2017-06-25T05:08:53.470Z,7.03
2017-06-25T05:11:21.105Z,7.00
2017-06-25T05:13:48.751Z,7.17
2017-06-25T05:16:16.507Z,7.03
2017-06-25T05:18:44.517Z,7.30
2017-06-25T05:21:12.454Z,7.37
2017-06-25T05:23:40.107Z,9.63
2017-06-25T05:26:07.759Z,8.10
2017-06-25T05:28:35.412Z,7.80
2017-06-25T05:31:03.136Z,7.30
2017-06-25T05:33:30.778Z,7.20
2017-06-25T05:35:58.817Z,6.57
2017-06-25T05:38:26.446Z,7.73
2017-06-25T05:40:54.915Z,7.43
2017-06-25T05:43:22.590Z,6.90
2017-06-25T05:45:50.224Z,7.17
2017-06-25T05:48:17.871Z,7.83
2017-06-25T05:50:45.523Z,6.93
2017-06-25T05:53:13.202Z,7.20
2017-06-25T05:55:40.832Z,6.40
2017-06-25T05:58:08.863Z,7.17
2017-06-25T06:00:36.492Z,7.90
2017-06-25T06:03:04.118Z,6.20
2017-06-25T06:05:31.789Z,7.17
2017-06-25T06:07:59.466Z,6.93
2017-06-25T06:10:27.115Z,7.30
2017-06-25T06:12:54.742Z,6.63
2017-06-25T06:15:23.171Z,6.90
2017-06-25T06:17:50.820Z,6.80
2017-06-25T06:20:18.478Z,6.13
2017-06-25T06:22:46.142Z,7.70
2017-06-25T06:25:13.749Z,6.63
2017-06-25T06:27:41.421Z,6.60
2017-06-25T06:30:09.826Z,6.80
2017-06-25T06:32:37.524Z,5.97
2017-06-25T06:35:05.183Z,6.37
2017-06-25T06:37:33.154Z,7.13
2017-06-25T06:40:00.812Z,6.07
2017-06-25T06:42:28.440Z,6.40
2017-06-25T06:44:56.154Z,6.50
2017-06-25T06:47:23.769Z,6.57
2017-06-25T06:49:51.406Z,6.47
2017-06-25T06:52:19.789Z,6.17
2017-06-25T06:54:48.240Z,5.80
2017-06-25T06:57:15.874Z,6.67
2017-06-25T06:59:43.518Z,5.90
2017-06-25T07:02:11.162Z,6.43
2017-06-25T07:04:38.804Z,6.20
2017-06-25T07:07:06.454Z,5.70
2017-06-25T07:09:34.247Z,6.30
2017-06-25T07:12:01.915Z,10.87
2017-06-25T07:14:29.780Z,25.10
2017-06-25T07:16:58.546Z,9.80
2017-06-25T07:19:26.976Z,7.27
2017-06-25T07:21:54.612Z,7.27
2017-06-25T07:24:22.272Z,8.73
2017-06-25T07:26:49.943Z,7.27
2017-06-25T07:29:17.663Z,7.30
2017-06-25T07:31:45.325Z,6.07
2017-06-25T07:34:12.958Z,5.87
2017-06-25T07:36:40.594Z,5.37
2017-06-25T07:39:08.630Z,4.60
2017-06-25T07:41:36.311Z,5.30
2017-06-25T07:44:04.707Z,7.07
2017-06-25T07:46:32.649Z,4.47
2017-06-25T07:49:01.046Z,7.03
2017-06-25T07:51:28.724Z,6.10
2017-06-25T07:53:56.365Z,5.50
2017-06-25T07:56:24.023Z,8.40
2017-06-25T07:58:52.538Z,4.70
2017-06-25T08:01:20.195Z,7.20
2017-06-25T08:03:47.884Z,4.80
2017-06-25T08:06:15.905Z,6.20
2017-06-25T08:08:43.556Z,5.27
2017-06-25T08:11:11.968Z,5.80
2017-06-25T08:13:39.631Z,5.43
2017-06-25T08:16:07.303Z,4.90
2017-06-25T08:18:35.045Z,4.30
2017-06-25T08:21:02.696Z,5.10
2017-06-25T08:23:30.747Z,5.27
2017-06-25T08:26:04.859Z,5.40
2017-06-25T08:28:34.068Z,4.87
2017-06-25T08:31:07.203Z,4.63
2017-06-25T08:33:40.821Z,6.27
2017-06-25T08:36:08.791Z,6.60
2017-06-25T08:38:36.797Z,6.47
2017-06-25T08:41:05.209Z,7.00
2017-06-25T08:43:32.843Z,5.77
2017-06-25T08:46:01.282Z,4.97
2017-06-25T08:48:28.936Z,4.67
2017-06-25T08:50:56.602Z,4.60
2017-06-25T08:53:24.249Z,6.70
2017-06-25T08:55:52.249Z,4.47
2017-06-25T08:58:19.888Z,4.70
2017-06-25T09:00:47.537Z,4.17
2017-06-25T09:03:15.206Z,4.20
2017-06-25T09:05:42.828Z,5.20
2017-06-25T09:08:10.492Z,4.43
2017-06-25T09:10:38.127Z,4.80
2017-06-25T09:13:06.221Z,4.30
2017-06-25T09:15:33.867Z,4.23
2017-06-25T09:18:02.289Z,4.53
2017-06-25T09:20:30.297Z,4.77
2017-06-25T09:22:57.948Z,4.30
2017-06-25T09:25:25.601Z,4.67
2017-06-25T09:27:53.729Z,4.77
2017-06-25T09:30:21.396Z,4.80
2017-06-25T09:32:49.048Z,4.90
2017-06-25T09:35:18.450Z,4.23
2017-06-25T09:37:46.085Z,5.13
2017-06-25T09:40:13.829Z,4.27
2017-06-25T09:42:41.958Z,4.53
2017-06-25T09:45:09.587Z,3.80
2017-06-25T09:47:37.227Z,4.00
2017-06-25T09:50:04.894Z,4.40
2017-06-25T09:52:32.536Z,4.50
2017-06-25T09:55:00.196Z,4.33
2017-06-25T09:57:27.839Z,4.13
2017-06-25T09:59:55.848Z,4.53
2017-06-25T10:02:23.495Z,3.33
2017-06-25T10:04:51.136Z,4.10
2017-06-25T10:07:19.165Z,3.20
2017-06-25T10:09:47.582Z,3.20
2017-06-25T10:12:15.244Z,3.27
2017-06-25T10:14:43.243Z,3.10
2017-06-25T10:17:10.889Z,3.83
2017-06-25T10:19:38.549Z,2.87
2017-06-25T10:22:06.603Z,3.67
2017-06-25T10:24:34.221Z,3.50
2017-06-25T10:27:01.888Z,3.20
2017-06-25T10:29:30.685Z,3.80
2017-06-25T10:31:59.099Z,3.70
2017-06-25T10:34:26.753Z,3.53
2017-06-25T10:36:54.811Z,3.97
2017-06-25T10:39:22.463Z,4.27
2017-06-25T10:41:50.887Z,4.50
2017-06-25T10:44:18.536Z,3.37
2017-06-25T10:46:46.187Z,3.60
2017-06-25T10:49:14.059Z,3.30
2017-06-25T10:51:41.706Z,3.70
2017-06-25T10:54:09.756Z,2.80
2017-06-25T10:56:38.154Z,2.90
2017-06-25T10:59:06.204Z,3.33
2017-06-25T11:01:34.727Z,3.23
2017-06-25T11:04:02.680Z,3.43
2017-06-25T11:06:30.334Z,3.67
2017-06-25T11:08:58.420Z,2.93
2017-06-25T11:11:26.102Z,3.80
2017-06-25T11:13:53.761Z,3.10
2017-06-25T11:16:21.743Z,3.20
2017-06-25T11:18:49.403Z,3.50
2017-06-25T11:21:17.105Z,3.40
2017-06-25T11:23:46.005Z,3.00
2017-06-25T11:26:14.532Z,2.57
2017-06-25T11:28:42.203Z,3.83
2017-06-25T11:31:09.856Z,3.20
2017-06-25T11:33:38.391Z,2.97
2017-06-25T11:36:06.807Z,2.63
2017-06-25T11:38:34.446Z,3.00
2017-06-25T11:41:02.089Z,2.93
2017-06-25T11:43:30.555Z,2.83
2017-06-25T11:45:58.470Z,3.07
2017-06-25T11:48:26.095Z,2.77
2017-06-25T11:50:54.520Z,2.83
2017-06-25T11:53:22.165Z,2.80
2017-06-25T11:55:50.361Z,3.30
2017-06-25T11:58:18.437Z,2.77
2017-06-25T12:00:46.115Z,3.07
2017-06-25T12:03:13.816Z,2.97
2017-06-25T12:05:42.223Z,3.43
2017-06-25T12:08:09.917Z,3.50
2017-06-25T12:10:37.661Z,2.70
2017-06-25T12:13:05.356Z,3.37
2017-06-25T12:15:33.059Z,3.03
2017-06-25T12:18:01.382Z,3.33
2017-06-25T12:20:29.038Z,3.27
2017-06-25T12:22:56.725Z,2.60
2017-06-25T12:25:24.427Z,3.30
2017-06-25T12:27:52.111Z,2.97
2017-06-25T12:30:19.803Z,2.80
2017-06-25T12:32:47.463Z,2.70
2017-06-25T12:35:15.516Z,2.77
2017-06-25T12:37:43.544Z,2.80
2017-06-25T12:40:11.940Z,2.70
2017-06-25T12:42:39.643Z,2.50
2017-06-25T12:45:07.334Z,3.20
2017-06-25T12:47:35.030Z,2.70
2017-06-25T12:50:02.688Z,3.17
2017-06-25T12:52:30.748Z,2.77
2017-06-25T12:54:59.491Z,3.17
2017-06-25T12:57:27.147Z,2.93
2017-06-25T12:59:54.804Z,3.47
2017-06-25T13:02:22.454Z,3.20
2017-06-25T13:04:50.417Z,2.90
2017-06-25T13:07:18.074Z,3.23
2017-06-25T13:09:45.733Z,3.33
2017-06-25T13:12:13.711Z,3.60
2017-06-25T13:14:41.360Z,2.80
2017-06-25T13:17:09.027Z,3.30
2017-06-25T13:19:37.089Z,2.60
2017-06-25T13:22:04.729Z,3.20
2017-06-25T13:24:33.133Z,2.60
2017-06-25T13:27:01.111Z,2.73
2017-06-25T13:29:28.775Z,2.97
2017-06-25T13:31:56.394Z,2.27
2017-06-25T13:34:24.572Z,2.83
2017-06-25T13:36:53.076Z,2.70
2017-06-25T13:39:20.734Z,2.40
2017-06-25T13:41:48.810Z,2.87
2017-06-25T13:44:16.492Z,2.43
2017-06-25T13:46:44.257Z,2.27
2017-06-25T13:49:12.295Z,2.43
2017-06-25T13:51:39.947Z,2.20
2017-06-25T13:54:08.382Z,2.73
2017-06-25T13:56:36.425Z,2.77
2017-06-25T13:59:04.122Z,2.40
2017-06-25T14:01:32.585Z,2.60
2017-06-25T14:04:00.840Z,2.37
2017-06-25T14:06:28.489Z,2.90
2017-06-25T14:08:56.905Z,2.60
2017-06-25T14:11:24.891Z,2.30
2017-06-25T14:13:52.531Z,2.87
2017-06-25T14:16:20.521Z,2.73
2017-06-25T14:18:48.489Z,2.30
2017-06-25T14:21:16.160Z,2.30
2017-06-25T14:23:43.814Z,2.60
2017-06-25T14:26:11.770Z,2.27
2017-06-25T14:28:39.452Z,2.43
2017-06-25T14:31:07.873Z,2.60
2017-06-25T14:33:37.011Z,2.30
2017-06-25T14:36:04.661Z,2.33
2017-06-25T14:38:32.290Z,2.17
2017-06-25T14:41:00.287Z,2.30
2017-06-25T14:43:28.059Z,2.00
2017-06-25T14:45:55.748Z,2.40
2017-06-25T14:48:23.749Z,2.30
2017-06-25T14:50:52.359Z,2.50
2017-06-25T14:53:20.013Z,2.40
2017-06-25T14:55:48.078Z,2.10
2017-06-25T14:58:15.764Z,1.93
2017-06-25T15:00:43.414Z,2.40
2017-06-25T15:03:11.371Z,2.50
2017-06-25T15:05:39.775Z,2.40
2017-06-25T15:08:07.427Z,3.00
2017-06-25T15:10:35.464Z,2.50
2017-06-25T15:13:03.911Z,2.73
2017-06-25T15:15:31.551Z,3.03
2017-06-25T15:17:59.602Z,2.30
2017-06-25T15:20:27.254Z,2.70
2017-06-25T15:22:55.764Z,2.50
2017-06-25T15:25:23.806Z,2.30
2017-06-25T15:27:52.218Z,2.43
2017-06-25T15:30:19.940Z,2.77
2017-06-25T15:32:48.687Z,2.63
2017-06-25T15:35:16.319Z,2.70
2017-06-25T15:37:44.095Z,2.23
2017-06-25T15:40:11.769Z,2.70
2017-06-25T15:42:39.398Z,2.80
2017-06-25T15:45:07.441Z,2.60
2017-06-25T15:47:35.851Z,2.73
2017-06-25T15:50:03.980Z,2.80
2017-06-25T15:52:31.647Z,2.83
2017-06-25T15:54:59.293Z,2.93
2017-06-25T15:57:27.262Z,3.20
2017-06-25T15:59:54.914Z,2.97
2017-06-25T16:02:22.636Z,3.07
2017-06-25T16:04:50.698Z,2.60
2017-06-25T16:07:18.444Z,2.60
2017-06-25T16:09:46.992Z,3.10
2017-06-25T16:12:15.360Z,3.70
2017-06-25T16:14:43.027Z,3.43
2017-06-25T16:17:10.678Z,2.70
2017-06-25T16:19:38.665Z,2.70
2017-06-25T16:22:06.402Z,2.90
2017-06-25T16:24:34.062Z,2.60
2017-06-25T16:27:02.132Z,3.23
2017-06-25T16:29:29.786Z,2.70
2017-06-25T16:31:57.437Z,2.73
2017-06-25T16:34:26.489Z,2.70
2017-06-25T16:36:54.195Z,3.03
2017-06-25T16:39:21.841Z,2.90
2017-06-25T16:41:50.574Z,3.00
2017-06-25T16:44:18.233Z,3.30
2017-06-25T16:46:45.886Z,3.17
2017-06-25T16:49:13.942Z,3.37
2017-06-25T16:51:41.630Z,2.90
2017-06-25T16:54:09.335Z,3.00
2017-06-25T16:56:37.364Z,3.30
2017-06-25T16:59:05.019Z,2.57
2017-06-25T17:01:32.673Z,3.07
2017-06-25T17:04:00.348Z,2.60
2017-06-25T17:06:28.030Z,3.07
2017-06-25T17:08:55.719Z,2.90
2017-06-25T17:11:23.354Z,3.13
2017-06-25T17:13:51.085Z,3.03
2017-06-25T17:16:18.728Z,2.63
2017-06-25T17:18:47.500Z,3.90
2017-06-25T17:21:15.908Z,3.10
2017-06-25T17:23:43.539Z,2.80
2017-06-25T17:26:11.955Z,3.20
2017-06-25T17:28:39.583Z,2.80
2017-06-25T17:31:08.020Z,3.47
2017-06-25T17:33:35.671Z,2.90
2017-06-25T17:36:03.405Z,3.10
2017-06-25T17:38:31.058Z,3.10
2017-06-25T17:40:59.971Z,2.90
2017-06-25T17:43:27.625Z,3.10
2017-06-25T17:45:55.285Z,3.10
2017-06-25T17:48:22.974Z,3.17
2017-06-25T17:50:50.651Z,2.90
2017-06-25T17:53:18.323Z,2.57
2017-06-25T17:55:46.004Z,3.00
2017-06-25T17:58:13.688Z,2.90
2017-06-25T18:00:42.140Z,3.27
2017-06-25T18:03:09.779Z,3.20
2017-06-25T18:05:37.480Z,2.80
2017-06-25T18:08:05.891Z,3.13
2017-06-25T18:10:33.604Z,2.60
2017-06-25T18:13:01.232Z,3.00
2017-06-25T18:15:29.036Z,2.80
2017-06-25T18:17:56.954Z,3.20
2017-06-25T18:20:24.995Z,3.07
2017-06-25T18:22:53.402Z,3.00
2017-06-25T18:25:21.068Z,3.63
2017-06-25T18:27:48.783Z,2.70
2017-06-25T18:30:16.437Z,2.57
2017-06-25T18:32:44.131Z,2.97
2017-06-25T18:35:12.623Z,2.77
2017-06-25T18:37:40.287Z,2.83
2017-06-25T18:40:07.950Z,2.90
2017-06-25T18:42:36.115Z,3.27
2017-06-25T18:45:03.774Z,3.17
2017-06-25T18:47:31.445Z,3.43
2017-06-25T18:49:59.635Z,2.93
2017-06-25T18:52:27.281Z,3.33
2017-06-25T18:54:55.920Z,2.90
2017-06-25T18:57:23.567Z,2.93
2017-06-25T18:59:51.251Z,3.27
2017-06-25T19:02:19.799Z,2.90
2017-06-25T19:04:47.456Z,2.90
2017-06-25T19:07:15.113Z,2.90
2017-06-25T19:09:43.101Z,3.00
2017-06-25T19:12:10.775Z,3.07
2017-06-25T19:14:38.436Z,3.03
2017-06-25T19:17:06.827Z,3.83
2017-06-25T19:19:34.521Z,2.80
2017-06-25T19:22:02.196Z,2.93
2017-06-25T19:24:29.856Z,2.60
2017-06-25T19:26:57.627Z,3.13
2017-06-25T19:29:25.280Z,3.00
2017-06-25T19:31:52.937Z,3.00
2017-06-25T19:34:20.615Z,2.83
2017-06-25T19:36:49.419Z,3.00
2017-06-25T19:39:17.076Z,2.63
2017-06-25T19:41:44.734Z,3.07
2017-06-25T19:44:12.783Z,3.30
2017-06-25T19:46:40.433Z,3.20
2017-06-25T19:49:08.118Z,2.60
2017-06-25T19:51:36.306Z,2.97
2017-06-25T19:54:03.979Z,2.60
2017-06-25T19:56:32.003Z,2.47
2017-06-25T19:59:00.883Z,2.93
2017-06-25T20:01:29.430Z,3.00
2017-06-25T20:03:57.174Z,3.00
2017-06-25T20:06:25.209Z,3.00
2017-06-25T20:08:53.612Z,3.43
2017-06-25T20:11:21.284Z,2.73
2017-06-25T20:13:49.312Z,2.80
2017-06-25T20:16:17.757Z,2.60
2017-06-25T20:18:45.422Z,2.60
2017-06-25T20:21:13.435Z,2.87
2017-06-25T20:23:41.879Z,2.83
2017-06-25T20:26:09.780Z,2.90
2017-06-25T20:28:38.691Z,2.50
2017-06-25T20:31:06.379Z,3.10
2017-06-25T20:33:34.020Z,3.13
2017-06-25T20:36:02.072Z,2.83
2017-06-25T20:38:30.634Z,2.90
2017-06-25T20:40:59.292Z,2.93
2017-06-25T20:43:27.319Z,3.47
2017-06-25T20:45:54.960Z,2.83
2017-06-25T20:48:23.384Z,3.03
2017-06-25T20:50:51.418Z,3.17
2017-06-25T20:53:19.864Z,2.80
2017-06-25T20:55:47.510Z,2.80
2017-06-25T20:58:15.531Z,3.20
2017-06-25T21:00:43.965Z,3.13
2017-06-25T21:03:11.611Z,3.07
2017-06-25T21:05:39.251Z,2.90
2017-06-25T21:08:06.939Z,3.27
2017-06-25T21:10:34.602Z,2.77
2017-06-25T21:13:02.251Z,3.30
2017-06-25T21:15:29.906Z,2.80
2017-06-25T21:17:57.560Z,2.93
2017-06-25T21:20:25.634Z,3.30
2017-06-25T21:22:53.292Z,3.17
2017-06-25T21:25:20.930Z,2.90
2017-06-25T21:27:49.353Z,3.10
2017-06-25T21:30:16.987Z,3.27
2017-06-25T21:32:44.668Z,2.70
2017-06-25T21:35:12.305Z,3.27
2017-06-25T21:37:40.741Z,3.10
2017-06-25T21:40:08.381Z,3.10
2017-06-25T21:42:36.416Z,3.30
2017-06-25T21:45:04.089Z,2.93
2017-06-25T21:47:31.737Z,3.53
2017-06-25T21:49:59.394Z,2.87
2017-06-25T21:52:27.801Z,2.87
2017-06-25T21:54:55.453Z,2.83
2017-06-25T21:57:23.093Z,3.67
2017-06-25T21:59:51.513Z,3.13
2017-06-25T22:02:19.171Z,3.00
2017-06-25T22:04:46.832Z,3.53
2017-06-25T22:07:14.445Z,3.90
2017-06-25T22:09:42.435Z,3.10
2017-06-25T22:12:10.846Z,3.83
2017-06-25T22:14:38.480Z,2.60
2017-06-25T22:17:06.910Z,3.27
2017-06-25T22:19:34.542Z,3.80
2017-06-25T22:22:02.187Z,3.00
2017-06-25T22:24:29.838Z,3.20
2017-06-25T22:26:58.636Z,2.83
2017-06-25T22:29:26.264Z,3.13
